sensor_id;sensor_type;location;lat;lon;timestamp;temperature;humidity
42885;DHT22;28534;48.100;11.584;2023-02-01T00:04:30;20.00;56.90
42885;DHT22;28534;48.100;11.584;2023-02-01T00:09:33;20.00;57.00
42885;DHT22;28534;48.100;11.584;2023-02-01T00:14:35;20.00;57.00
42885;DHT22;28534;48.100;11.584;2023-02-01T00:19:39;20.00;57.00
42885;DHT22;28534;48.100;11.584;2023-02-01T00:24:42;20.00;57.10
42885;DHT22;28534;48.100;11.584;2023-02-01T00:29:44;20.00;57.00
42885;DHT22;28534;48.100;11.584;2023-02-01T00:34:46;20.00;57.10
42885;DHT22;28534;48.100;11.584;2023-02-01T00:39:49;20.00;57.10
42885;DHT22;28534;48.100;11.584;2023-02-01T00:44:51;19.90;57.10
42885;DHT22;28534;48.100;11.584;2023-02-01T00:49:53;19.90;57.10
42885;DHT22;28534;48.100;11.584;2023-02-01T00:54:56;19.90;57.10
42885;DHT22;28534;48.100;11.584;2023-02-01T00:59:57;19.90;57.10
42885;DHT22;28534;48.100;11.584;2023-02-01T01:04:59;19.90;57.10
42885;DHT22;28534;48.100;11.584;2023-02-01T01:10:03;19.90;57.20
42885;DHT22;28534;48.100;11.584;2023-02-01T01:15:06;19.90;57.20
42885;DHT22;28534;48.100;11.584;2023-02-01T01:20:09;19.90;57.20
42885;DHT22;28534;48.100;11.584;2023-02-01T01:25:13;19.90;57.20
42885;DHT22;28534;48.100;11.584;2023-02-01T01:30:16;19.90;57.20
42885;DHT22;28534;48.100;11.584;2023-02-01T01:35:18;19.90;57.30
42885;DHT22;28534;48.100;11.584;2023-02-01T01:40:22;19.90;57.30
42885;DHT22;28534;48.100;11.584;2023-02-01T01:45:26;19.80;57.20
42885;DHT22;28534;48.100;11.584;2023-02-01T01:50:31;19.90;57.40
42885;DHT22;28534;48.100;11.584;2023-02-01T01:55:39;19.80;57.20
42885;DHT22;28534;48.100;11.584;2023-02-01T02:00:44;19.80;57.30
42885;DHT22;28534;48.100;11.584;2023-02-01T02:05:46;19.80;57.30
42885;DHT22;28534;48.100;11.584;2023-02-01T02:10:51;19.80;57.30
42885;DHT22;28534;48.100;11.584;2023-02-01T02:16:26;19.80;57.30
42885;DHT22;28534;48.100;11.584;2023-02-01T02:21:47;19.80;57.30
42885;DHT22;28534;48.100;11.584;2023-02-01T02:27:06;19.80;57.30
42885;DHT22;28534;48.100;11.584;2023-02-01T02:32:52;19.80;57.40
42885;DHT22;28534;48.100;11.584;2023-02-01T02:38:12;19.80;57.40
42885;DHT22;28534;48.100;11.584;2023-02-01T02:43:21;19.80;57.40
42885;DHT22;28534;48.100;11.584;2023-02-01T02:48:47;19.70;57.40
42885;DHT22;28534;48.100;11.584;2023-02-01T02:53:58;19.80;57.50
42885;DHT22;28534;48.100;11.584;2023-02-01T02:59:21;19.70;57.50
42885;DHT22;28534;48.100;11.584;2023-02-01T03:04:43;19.70;57.40
42885;DHT22;28534;48.100;11.584;2023-02-01T03:09:47;19.70;57.50
42885;DHT22;28534;48.100;11.584;2023-02-01T03:14:54;19.70;57.40
42885;DHT22;28534;48.100;11.584;2023-02-01T03:19:59;19.70;57.50
42885;DHT22;28534;48.100;11.584;2023-02-01T03:25:09;19.70;57.50
42885;DHT22;28534;48.100;11.584;2023-02-01T03:30:17;19.70;57.50
42885;DHT22;28534;48.100;11.584;2023-02-01T03:35:25;19.70;57.50
42885;DHT22;28534;48.100;11.584;2023-02-01T03:40:33;19.70;57.50
42885;DHT22;28534;48.100;11.584;2023-02-01T03:45:41;19.80;57.40
42885;DHT22;28534;48.100;11.584;2023-02-01T03:50:48;19.90;57.20
42885;DHT22;28534;48.100;11.584;2023-02-01T03:55:53;20.10;56.80
42885;DHT22;28534;48.100;11.584;2023-02-01T04:00:57;20.10;56.80
42885;DHT22;28534;48.100;11.584;2023-02-01T04:05:59;20.10;56.60
42885;DHT22;28534;48.100;11.584;2023-02-01T04:11:02;20.20;56.50
42885;DHT22;28534;48.100;11.584;2023-02-01T04:16:04;20.20;56.50
42885;DHT22;28534;48.100;11.584;2023-02-01T04:21:06;20.30;56.40
42885;DHT22;28534;48.100;11.584;2023-02-01T04:26:09;20.40;56.30
42885;DHT22;28534;48.100;11.584;2023-02-01T04:31:11;20.60;56.10
42885;DHT22;28534;48.100;11.584;2023-02-01T04:36:13;20.60;55.90
42885;DHT22;28534;48.100;11.584;2023-02-01T04:41:16;20.70;55.70
42885;DHT22;28534;48.100;11.584;2023-02-01T04:46:19;20.70;55.80
42885;DHT22;28534;48.100;11.584;2023-02-01T04:51:21;20.80;55.80
42885;DHT22;28534;48.100;11.584;2023-02-01T04:56:24;20.80;55.80
42885;DHT22;28534;48.100;11.584;2023-02-01T05:01:26;20.80;55.70
42885;DHT22;28534;48.100;11.584;2023-02-01T05:06:28;20.90;55.50
42885;DHT22;28534;48.100;11.584;2023-02-01T05:11:31;20.90;55.30
42885;DHT22;28534;48.100;11.584;2023-02-01T05:16:50;20.90;55.30
42885;DHT22;28534;48.100;11.584;2023-02-01T05:21:51;21.00;55.70
42885;DHT22;28534;48.100;11.584;2023-02-01T05:26:55;21.10;55.80
42885;DHT22;28534;48.100;11.584;2023-02-01T05:31:56;21.10;56.20
42885;DHT22;28534;48.100;11.584;2023-02-01T05:36:58;21.20;56.30
42885;DHT22;28534;48.100;11.584;2023-02-01T05:42:01;21.20;56.80
42885;DHT22;28534;48.100;11.584;2023-02-01T05:47:03;21.20;56.70
42885;DHT22;28534;48.100;11.584;2023-02-01T05:52:05;21.20;56.80
42885;DHT22;28534;48.100;11.584;2023-02-01T05:57:08;21.20;56.50
42885;DHT22;28534;48.100;11.584;2023-02-01T06:02:11;21.30;56.70
42885;DHT22;28534;48.100;11.584;2023-02-01T06:07:12;21.30;54.20
42885;DHT22;28534;48.100;11.584;2023-02-01T06:12:15;21.30;54.00
42885;DHT22;28534;48.100;11.584;2023-02-01T06:17:17;21.40;53.70
42885;DHT22;28534;48.100;11.584;2023-02-01T06:22:19;21.30;54.00
42885;DHT22;28534;48.100;11.584;2023-02-01T06:27:23;21.20;54.30
42885;DHT22;28534;48.100;11.584;2023-02-01T06:32:25;21.20;54.50
42885;DHT22;28534;48.100;11.584;2023-02-01T06:37:26;21.30;54.60
42885;DHT22;28534;48.100;11.584;2023-02-01T06:42:31;21.20;54.60
42885;DHT22;28534;48.100;11.584;2023-02-01T06:47:32;21.30;55.20
42885;DHT22;28534;48.100;11.584;2023-02-01T06:52:35;21.30;54.70
42885;DHT22;28534;48.100;11.584;2023-02-01T06:57:38;21.20;54.80
42885;DHT22;28534;48.100;11.584;2023-02-01T07:02:40;21.30;54.30
42885;DHT22;28534;48.100;11.584;2023-02-01T07:07:42;21.40;54.60
42885;DHT22;28534;48.100;11.584;2023-02-01T07:12:45;21.30;52.50
42885;DHT22;28534;48.100;11.584;2023-02-01T07:17:47;20.40;46.70
42885;DHT22;28534;48.100;11.584;2023-02-01T07:22:54;20.60;48.30
42885;DHT22;28534;48.100;11.584;2023-02-01T07:27:58;20.90;49.00
42885;DHT22;28534;48.100;11.584;2023-02-01T07:32:59;21.10;49.10
42885;DHT22;28534;48.100;11.584;2023-02-01T07:38:01;21.30;49.50
42885;DHT22;28534;48.100;11.584;2023-02-01T07:43:04;21.30;49.90
42885;DHT22;28534;48.100;11.584;2023-02-01T07:48:08;21.30;50.60
42885;DHT22;28534;48.100;11.584;2023-02-01T07:53:10;21.30;51.00
42885;DHT22;28534;48.100;11.584;2023-02-01T07:58:13;21.40;51.30
42885;DHT22;28534;48.100;11.584;2023-02-01T08:03:14;21.30;52.00
42885;DHT22;28534;48.100;11.584;2023-02-01T08:08:16;21.30;52.30
42885;DHT22;28534;48.100;11.584;2023-02-01T08:13:19;21.40;52.60
42885;DHT22;28534;48.100;11.584;2023-02-01T08:18:21;21.40;52.60
42885;DHT22;28534;48.100;11.584;2023-02-01T08:23:23;21.40;52.90
42885;DHT22;28534;48.100;11.584;2023-02-01T08:28:26;21.40;53.10
42885;DHT22;28534;48.100;11.584;2023-02-01T08:33:29;21.30;53.40
42885;DHT22;28534;48.100;11.584;2023-02-01T08:38:31;21.30;53.50
42885;DHT22;28534;48.100;11.584;2023-02-01T08:43:34;21.40;53.70
42885;DHT22;28534;48.100;11.584;2023-02-01T08:48:36;21.40;54.00
42885;DHT22;28534;48.100;11.584;2023-02-01T08:53:38;21.50;54.20
42885;DHT22;28534;48.100;11.584;2023-02-01T08:58:43;21.50;54.20
42885;DHT22;28534;48.100;11.584;2023-02-01T09:03:44;21.40;54.50
42885;DHT22;28534;48.100;11.584;2023-02-01T09:08:46;21.50;54.70
42885;DHT22;28534;48.100;11.584;2023-02-01T09:13:49;21.50;55.10
42885;DHT22;28534;48.100;11.584;2023-02-01T09:18:51;21.50;55.40
42885;DHT22;28534;48.100;11.584;2023-02-01T09:23:53;21.60;55.70
42885;DHT22;28534;48.100;11.584;2023-02-01T09:28:56;21.60;55.70
42885;DHT22;28534;48.100;11.584;2023-02-01T09:33:58;21.70;55.90
42885;DHT22;28534;48.100;11.584;2023-02-01T09:39:00;21.60;55.80
42885;DHT22;28534;48.100;11.584;2023-02-01T09:44:09;21.60;56.20
42885;DHT22;28534;48.100;11.584;2023-02-01T09:49:16;21.70;56.00
42885;DHT22;28534;48.100;11.584;2023-02-01T09:54:22;21.70;56.10
42885;DHT22;28534;48.100;11.584;2023-02-01T09:59:37;21.70;56.60
42885;DHT22;28534;48.100;11.584;2023-02-01T10:04:41;21.70;57.20
42885;DHT22;28534;48.100;11.584;2023-02-01T10:09:50;21.70;58.10
42885;DHT22;28534;48.100;11.584;2023-02-01T10:15:01;21.80;59.20
42885;DHT22;28534;48.100;11.584;2023-02-01T10:20:11;21.90;59.70
42885;DHT22;28534;48.100;11.584;2023-02-01T10:25:20;21.80;60.40
42885;DHT22;28534;48.100;11.584;2023-02-01T10:30:30;21.90;61.00
42885;DHT22;28534;48.100;11.584;2023-02-01T10:35:34;22.00;61.50
42885;DHT22;28534;48.100;11.584;2023-02-01T10:40:39;21.90;59.80
42885;DHT22;28534;48.100;11.584;2023-02-01T10:45:42;21.90;60.10
42885;DHT22;28534;48.100;11.584;2023-02-01T10:50:48;21.80;60.70
42885;DHT22;28534;48.100;11.584;2023-02-01T10:55:51;21.80;60.60
42885;DHT22;28534;48.100;11.584;2023-02-01T11:00:57;21.80;59.30
42885;DHT22;28534;48.100;11.584;2023-02-01T11:06:00;21.80;59.90
42885;DHT22;28534;48.100;11.584;2023-02-01T11:11:03;21.80;59.70
42885;DHT22;28534;48.100;11.584;2023-02-01T11:16:12;21.90;59.00
42885;DHT22;28534;48.100;11.584;2023-02-01T11:21:14;21.80;58.10
42885;DHT22;28534;48.100;11.584;2023-02-01T11:26:21;21.80;58.40
42885;DHT22;28534;48.100;11.584;2023-02-01T11:31:27;21.90;58.50
42885;DHT22;28534;48.100;11.584;2023-02-01T11:36:32;21.90;58.80
42885;DHT22;28534;48.100;11.584;2023-02-01T11:41:40;21.90;59.00
42885;DHT22;28534;48.100;11.584;2023-02-01T11:46:44;21.80;58.80
42885;DHT22;28534;48.100;11.584;2023-02-01T11:51:54;21.80;58.80
42885;DHT22;28534;48.100;11.584;2023-02-01T11:57:08;21.80;58.90
42885;DHT22;28534;48.100;11.584;2023-02-01T12:02:28;22.00;58.70
42885;DHT22;28534;48.100;11.584;2023-02-01T12:07:49;21.90;58.70
42885;DHT22;28534;48.100;11.584;2023-02-01T12:12:59;21.90;58.10
42885;DHT22;28534;48.100;11.584;2023-02-01T12:18:25;21.80;57.80
42885;DHT22;28534;48.100;11.584;2023-02-01T12:23:44;21.80;57.90
42885;DHT22;28534;48.100;11.584;2023-02-01T12:29:18;21.80;58.10
42885;DHT22;28534;48.100;11.584;2023-02-01T12:34:33;21.80;58.20
42885;DHT22;28534;48.100;11.584;2023-02-01T12:39:39;21.90;58.10
42885;DHT22;28534;48.100;11.584;2023-02-01T12:44:46;21.80;58.20
42885;DHT22;28534;48.100;11.584;2023-02-01T12:49:57;21.80;58.40
42885;DHT22;28534;48.100;11.584;2023-02-01T12:55:06;21.80;58.50
42885;DHT22;28534;48.100;11.584;2023-02-01T13:00:18;21.80;58.40
42885;DHT22;28534;48.100;11.584;2023-02-01T13:05:28;21.80;59.00
42885;DHT22;28534;48.100;11.584;2023-02-01T13:10:35;21.80;58.50
42885;DHT22;28534;48.100;11.584;2023-02-01T13:15:41;21.80;58.70
42885;DHT22;28534;48.100;11.584;2023-02-01T13:20:49;21.80;58.70
42885;DHT22;28534;48.100;11.584;2023-02-01T13:25:54;21.80;58.70
42885;DHT22;28534;48.100;11.584;2023-02-01T13:31:16;21.80;58.80
42885;DHT22;28534;48.100;11.584;2023-02-01T13:36:47;21.80;58.80
42885;DHT22;28534;48.100;11.584;2023-02-01T13:41:55;21.90;58.80
42885;DHT22;28534;48.100;11.584;2023-02-01T13:46:59;21.80;58.10
42885;DHT22;28534;48.100;11.584;2023-02-01T13:52:04;21.90;58.10
42885;DHT22;28534;48.100;11.584;2023-02-01T13:57:28;21.90;58.40
42885;DHT22;28534;48.100;11.584;2023-02-01T14:02:45;21.80;59.00
42885;DHT22;28534;48.100;11.584;2023-02-01T14:13:26;21.80;59.30
42885;DHT22;28534;48.100;11.584;2023-02-01T14:18:49;21.80;58.10
42885;DHT22;28534;48.100;11.584;2023-02-01T14:24:00;21.80;58.20
42885;DHT22;28534;48.100;11.584;2023-02-01T14:34:37;21.80;58.40
42885;DHT22;28534;48.100;11.584;2023-02-01T14:39:52;22.00;58.30
42885;DHT22;28534;48.100;11.584;2023-02-01T14:50:39;21.90;59.00
42885;DHT22;28534;48.100;11.584;2023-02-01T14:55:42;21.90;59.50
42885;DHT22;28534;48.100;11.584;2023-02-01T15:00:51;21.90;59.30
42885;DHT22;28534;48.100;11.584;2023-02-01T15:05:57;21.80;58.80
42885;DHT22;28534;48.100;11.584;2023-02-01T15:11:04;21.90;59.00
42885;DHT22;28534;48.100;11.584;2023-02-01T15:16:11;21.90;59.20
42885;DHT22;28534;48.100;11.584;2023-02-01T15:21:16;21.90;59.30
42885;DHT22;28534;48.100;11.584;2023-02-01T15:26:26;22.00;59.40
42885;DHT22;28534;48.100;11.584;2023-02-01T15:31:35;22.10;59.30
42885;DHT22;28534;48.100;11.584;2023-02-01T15:36:38;22.00;58.50
42885;DHT22;28534;48.100;11.584;2023-02-01T15:41:41;21.90;58.50
42885;DHT22;28534;48.100;11.584;2023-02-01T15:46:47;21.90;58.80
42885;DHT22;28534;48.100;11.584;2023-02-01T15:51:50;21.90;59.00
42885;DHT22;28534;48.100;11.584;2023-02-01T15:56:55;21.80;59.20
42885;DHT22;28534;48.100;11.584;2023-02-01T16:01:59;21.90;59.30
42885;DHT22;28534;48.100;11.584;2023-02-01T16:07:02;21.90;59.30
42885;DHT22;28534;48.100;11.584;2023-02-01T16:12:23;21.90;60.00
42885;DHT22;28534;48.100;11.584;2023-02-01T16:17:29;22.00;60.00
42885;DHT22;28534;48.100;11.584;2023-02-01T16:22:31;22.10;60.30
42885;DHT22;28534;48.100;11.584;2023-02-01T16:27:32;22.10;61.10
42885;DHT22;28534;48.100;11.584;2023-02-01T16:32:36;22.00;60.70
42885;DHT22;28534;48.100;11.584;2023-02-01T16:37:38;21.90;60.90
42885;DHT22;28534;48.100;11.584;2023-02-01T16:42:40;21.80;59.10
42885;DHT22;28534;48.100;11.584;2023-02-01T16:47:47;21.80;59.60
42885;DHT22;28534;48.100;11.584;2023-02-01T16:52:52;21.90;59.10
42885;DHT22;28534;48.100;11.584;2023-02-01T16:57:54;21.90;57.90
42885;DHT22;28534;48.100;11.584;2023-02-01T17:02:57;21.90;58.10
42885;DHT22;28534;48.100;11.584;2023-02-01T17:08:02;21.90;57.60
42885;DHT22;28534;48.100;11.584;2023-02-01T17:13:05;21.90;57.80
42885;DHT22;28534;48.100;11.584;2023-02-01T17:18:14;21.90;58.10
42885;DHT22;28534;48.100;11.584;2023-02-01T17:23:16;21.80;58.30
42885;DHT22;28534;48.100;11.584;2023-02-01T17:28:18;21.80;58.00
42885;DHT22;28534;48.100;11.584;2023-02-01T17:33:24;21.90;58.90
42885;DHT22;28534;48.100;11.584;2023-02-01T17:38:27;22.00;58.70
42885;DHT22;28534;48.100;11.584;2023-02-01T17:43:28;21.90;59.00
42885;DHT22;28534;48.100;11.584;2023-02-01T17:48:32;21.80;59.40
42885;DHT22;28534;48.100;11.584;2023-02-01T17:53:34;21.70;60.20
42885;DHT22;28534;48.100;11.584;2023-02-01T17:58:36;21.60;61.00
42885;DHT22;28534;48.100;11.584;2023-02-01T18:03:39;21.50;61.10
42885;DHT22;28534;48.100;11.584;2023-02-01T18:08:41;21.40;61.50
42885;DHT22;28534;48.100;11.584;2023-02-01T18:13:44;21.40;61.60
42885;DHT22;28534;48.100;11.584;2023-02-01T18:18:47;21.30;60.90
42885;DHT22;28534;48.100;11.584;2023-02-01T18:23:49;21.20;60.80
42885;DHT22;28534;48.100;11.584;2023-02-01T18:28:51;21.20;61.00
42885;DHT22;28534;48.100;11.584;2023-02-01T18:33:56;21.10;61.10
42885;DHT22;28534;48.100;11.584;2023-02-01T18:38:58;21.10;61.30
42885;DHT22;28534;48.100;11.584;2023-02-01T18:44:00;21.00;61.50
42885;DHT22;28534;48.100;11.584;2023-02-01T18:49:03;21.00;61.90
42885;DHT22;28534;48.100;11.584;2023-02-01T18:54:07;21.00;62.10
42885;DHT22;28534;48.100;11.584;2023-02-01T18:59:09;20.90;61.80
42885;DHT22;28534;48.100;11.584;2023-02-01T19:04:13;21.00;61.80
42885;DHT22;28534;48.100;11.584;2023-02-01T19:09:14;21.00;62.80
42885;DHT22;28534;48.100;11.584;2023-02-01T19:14:16;20.90;62.10
42885;DHT22;28534;48.100;11.584;2023-02-01T19:19:19;20.90;62.10
42885;DHT22;28534;48.100;11.584;2023-02-01T19:24:21;20.90;62.00
42885;DHT22;28534;48.100;11.584;2023-02-01T19:29:27;20.90;62.20
42885;DHT22;28534;48.100;11.584;2023-02-01T19:34:30;20.90;62.30
42885;DHT22;28534;48.100;11.584;2023-02-01T19:39:32;20.80;62.10
42885;DHT22;28534;48.100;11.584;2023-02-01T19:44:34;20.80;62.20
42885;DHT22;28534;48.100;11.584;2023-02-01T19:49:37;20.80;62.30
42885;DHT22;28534;48.100;11.584;2023-02-01T19:54:39;20.80;62.20
42885;DHT22;28534;48.100;11.584;2023-02-01T19:59:41;20.80;62.30
42885;DHT22;28534;48.100;11.584;2023-02-01T20:04:44;20.80;62.20
42885;DHT22;28534;48.100;11.584;2023-02-01T20:09:46;20.70;62.10
42885;DHT22;28534;48.100;11.584;2023-02-01T20:14:47;20.80;62.30
42885;DHT22;28534;48.100;11.584;2023-02-01T20:19:50;20.80;62.30
42885;DHT22;28534;48.100;11.584;2023-02-01T20:24:52;20.70;62.30
42885;DHT22;28534;48.100;11.584;2023-02-01T20:29:54;20.70;62.30
42885;DHT22;28534;48.100;11.584;2023-02-01T20:34:57;20.70;62.10
42885;DHT22;28534;48.100;11.584;2023-02-01T20:39:59;20.70;62.10
42885;DHT22;28534;48.100;11.584;2023-02-01T20:45:01;20.70;62.20
42885;DHT22;28534;48.100;11.584;2023-02-01T20:50:05;20.70;62.20
42885;DHT22;28534;48.100;11.584;2023-02-01T20:55:07;20.70;62.10
42885;DHT22;28534;48.100;11.584;2023-02-01T21:00:10;20.70;62.20
42885;DHT22;28534;48.100;11.584;2023-02-01T21:05:14;20.70;62.20
42885;DHT22;28534;48.100;11.584;2023-02-01T21:10:16;20.60;62.40
42885;DHT22;28534;48.100;11.584;2023-02-01T21:15:17;20.60;62.30
42885;DHT22;28534;48.100;11.584;2023-02-01T21:20:22;20.60;63.10
42885;DHT22;28534;48.100;11.584;2023-02-01T21:25:24;20.60;62.10
42885;DHT22;28534;48.100;11.584;2023-02-01T21:30:25;20.60;62.10
42885;DHT22;28534;48.100;11.584;2023-02-01T21:35:29;20.60;62.00
42885;DHT22;28534;48.100;11.584;2023-02-01T21:40:30;20.60;62.10
42885;DHT22;28534;48.100;11.584;2023-02-01T21:45:32;20.60;62.10
42885;DHT22;28534;48.100;11.584;2023-02-01T21:50:36;20.60;62.00
42885;DHT22;28534;48.100;11.584;2023-02-01T21:55:38;20.50;62.00
42885;DHT22;28534;48.100;11.584;2023-02-01T22:00:39;20.50;62.10
42885;DHT22;28534;48.100;11.584;2023-02-01T22:05:49;20.50;62.00
42885;DHT22;28534;48.100;11.584;2023-02-01T22:10:51;20.50;62.80
42885;DHT22;28534;48.100;11.584;2023-02-01T22:15:54;20.50;62.10
42885;DHT22;28534;48.100;11.584;2023-02-01T22:21:00;20.50;62.10
42885;DHT22;28534;48.100;11.584;2023-02-01T22:26:04;20.50;62.30
42885;DHT22;28534;48.100;11.584;2023-02-01T22:31:08;20.50;62.30
42885;DHT22;28534;48.100;11.584;2023-02-01T22:36:12;20.40;62.30
42885;DHT22;28534;48.100;11.584;2023-02-01T22:41:16;20.40;62.40
42885;DHT22;28534;48.100;11.584;2023-02-01T22:46:20;20.40;62.40
42885;DHT22;28534;48.100;11.584;2023-02-01T22:51:27;20.40;62.40
42885;DHT22;28534;48.100;11.584;2023-02-01T22:56:33;20.40;62.40
42885;DHT22;28534;48.100;11.584;2023-02-01T23:01:35;20.40;62.50
42885;DHT22;28534;48.100;11.584;2023-02-01T23:06:38;20.40;62.50
42885;DHT22;28534;48.100;11.584;2023-02-01T23:11:41;20.40;62.50
42885;DHT22;28534;48.100;11.584;2023-02-01T23:16:45;20.40;62.40
42885;DHT22;28534;48.100;11.584;2023-02-01T23:21:48;20.40;62.60
42885;DHT22;28534;48.100;11.584;2023-02-01T23:26:50;20.40;62.60
42885;DHT22;28534;48.100;11.584;2023-02-01T23:31:51;20.30;62.70
42885;DHT22;28534;48.100;11.584;2023-02-01T23:36:54;20.30;62.80
42885;DHT22;28534;48.100;11.584;2023-02-01T23:41:56;20.30;62.80
42885;DHT22;28534;48.100;11.584;2023-02-01T23:46:58;20.30;62.80
42885;DHT22;28534;48.100;11.584;2023-02-01T23:52:02;20.20;62.80
42885;DHT22;28534;48.100;11.584;2023-02-01T23:57:04;20.30;62.80
